Time;durP1;ratioP1;P1;durP2;ratioP2;P2;SDS_P1;SDS_P2;PMS_P1;PMS_P2;Temp;Humidity;BMP_temperature;BMP_pressure;BME280_temperature;BME280_humidity;BME280_pressure;Samples;Min_cycle;Max_cycle;Signal;HPM_P1;HPM_P2
2023/02/20 00:00:38;;;;;;;3.28;1.83;;;15.70;60.80;;;;;;4994143;28;20061;-74
2023/02/20 00:03:05;;;;;;;1.70;1.02;;;15.70;60.80;;;;;;4993990;28;20026;-74
2023/02/20 00:05:31;;;;;;;1.45;1.00;;;15.70;60.90;;;;;;4993929;28;20046;-74
2023/02/20 00:07:56;;;;;;;1.83;1.33;;;15.70;60.80;;;;;;4993882;28;20499;-74
2023/02/20 00:10:23;;;;;;;1.88;1.10;;;15.70;60.70;;;;;;4976435;28;20027;-74
2023/02/20 00:12:49;;;;;;;1.60;1.45;;;15.70;60.80;;;;;;4994199;28;20018;-74
2023/02/20 00:15:20;;;;;;;1.67;1.15;;;15.70;60.70;;;;;;4993804;28;20038;-74
2023/02/20 00:17:46;;;;;;;1.27;1.00;;;15.70;60.70;;;;;;4993937;28;20030;-74
2023/02/20 00:20:18;;;;;;;3.47;0.98;;;15.70;60.70;;;;;;4993757;28;20026;-74
2023/02/20 00:22:44;;;;;;;2.15;1.27;;;15.70;60.80;;;;;;4993788;28;20061;-74
2023/02/20 00:25:10;;;;;;;2.50;1.27;;;15.70;60.80;;;;;;4993663;28;20058;-74
2023/02/20 00:27:35;;;;;;;1.73;1.20;;;15.70;60.80;;;;;;4993707;28;20027;-74
2023/02/20 00:30:01;;;;;;;4.53;1.40;;;15.70;60.80;;;;;;4993482;28;20026;-76
2023/02/20 00:32:27;;;;;;;4.00;1.77;;;15.70;60.70;;;;;;4993535;28;20114;-75
2023/02/20 00:34:52;;;;;;;3.75;1.60;;;15.70;60.70;;;;;;4993489;28;20041;-74
2023/02/20 00:37:18;;;;;;;3.90;1.65;;;15.70;60.60;;;;;;4993539;28;20026;-73
2023/02/20 00:39:43;;;;;;;1.52;0.85;;;15.70;60.70;;;;;;4976077;28;20026;-74
2023/02/20 00:42:09;;;;;;;2.00;1.17;;;15.70;60.70;;;;;;4993217;28;20033;-74
2023/02/20 00:44:35;;;;;;;3.05;1.63;;;15.70;60.70;;;;;;4993345;28;20116;-74
2023/02/20 00:47:00;;;;;;;1.50;1.20;;;15.70;61.40;;;;;;4993234;28;20032;-74
2023/02/20 00:49:26;;;;;;;3.75;1.63;;;15.60;60.70;;;;;;4993230;28;20031;-74
2023/02/20 00:51:51;;;;;;;3.10;1.40;;;15.70;60.70;;;;;;4993297;28;20030;-74
2023/02/20 00:54:17;;;;;;;3.88;1.98;;;15.60;60.50;;;;;;4993250;28;20027;-74
2023/02/20 00:56:43;;;;;;;1.77;1.50;;;15.60;61.10;;;;;;4975930;28;20076;-74
2023/02/20 00:59:08;;;;;;;2.55;1.67;;;15.70;60.60;;;;;;4993280;28;20014;-74
2023/02/20 01:01:35;;;;;;;2.05;1.55;;;15.80;69.30;;;;;;4993132;28;20389;-74
2023/02/20 01:04:00;;;;;;;4.32;1.50;;;15.60;60.60;;;;;;4992817;28;20122;-74
2023/02/20 01:06:26;;;;;;;1.88;1.40;;;15.60;60.40;;;;;;4993015;28;20445;-75
2023/02/20 01:08:52;;;;;;;3.28;1.80;;;15.60;60.40;;;;;;4993169;28;20061;-74
2023/02/20 01:11:17;;;;;;;3.20;1.48;;;15.60;60.30;;;;;;4992914;28;20033;-73
2023/02/20 01:13:43;;;;;;;2.92;2.05;;;15.60;60.40;;;;;;4993095;28;20543;-77
2023/02/20 01:16:08;;;;;;;3.40;1.67;;;15.60;60.40;;;;;;4992889;28;20026;-74
2023/02/20 01:18:34;;;;;;;4.03;1.65;;;15.60;60.50;;;;;;4992866;28;20568;-75
2023/02/20 01:21:00;;;;;;;3.03;1.50;;;15.60;60.50;;;;;;4992781;28;20389;-74
2023/02/20 01:23:25;;;;;;;1.40;1.30;;;15.60;60.50;;;;;;4992699;28;20121;-74
2023/02/20 01:25:51;;;;;;;4.93;2.00;;;15.60;60.50;;;;;;4992720;28;20501;-74
2023/02/20 01:28:17;;;;;;;3.58;1.42;;;15.60;60.50;;;;;;4992779;28;20065;-75
2023/02/20 01:30:42;;;;;;;3.85;1.92;;;15.60;60.50;;;;;;4992700;28;20025;-74
2023/02/20 01:33:08;;;;;;;1.73;1.27;;;15.60;60.60;;;;;;4992660;28;20053;-75
2023/02/20 01:35:34;;;;;;;4.95;2.40;;;15.60;60.40;;;;;;4992753;28;20023;-75
2023/02/20 01:38:00;;;;;;;5.20;2.10;;;15.60;60.30;;;;;;4992665;28;20026;-75
2023/02/20 01:40:26;;;;;;;3.45;2.05;;;15.60;60.30;;;;;;4992573;28;20018;-75
2023/02/20 01:42:53;;;;;;;2.42;1.80;;;15.60;60.30;;;;;;4992685;28;20081;-75
2023/02/20 01:45:21;;;;;;;3.67;2.05;;;15.60;60.30;;;;;;4992544;28;20505;-75
2023/02/20 01:47:49;;;;;;;5.57;2.45;;;15.60;60.40;;;;;;4992581;28;20026;-75
2023/02/20 01:50:16;;;;;;;4.40;2.42;;;15.60;60.20;;;;;;4992583;28;20038;-75
2023/02/20 01:52:44;;;;;;;5.35;2.17;;;15.60;60.30;;;;;;4994042;28;20062;-74
2023/02/20 01:55:24;;;;;;;2.88;2.30;;;15.60;60.30;;;;;;4996561;28;20104;-74
2023/02/20 01:57:54;;;;;;;6.05;2.47;;;15.60;60.30;;;;;;4996530;28;20093;-74
2023/02/20 02:00:23;;;;;;;3.95;2.28;;;15.60;60.20;;;;;;4996385;28;20022;-74
2023/02/20 02:03:14;;;;;;;5.03;2.50;;;15.50;60.10;;;;;;4996244;28;20027;-75
2023/02/20 02:05:45;;;;;;;6.18;2.58;;;15.60;60.20;;;;;;4987136;28;20054;-75
2023/02/20 02:08:13;;;;;;;6.50;2.90;;;15.60;60.20;;;;;;4996312;28;20097;-74
2023/02/20 02:10:47;;;;;;;5.60;2.55;;;15.60;60.20;;;;;;4996232;28;20034;-74
2023/02/20 02:13:13;;;;;;;3.67;2.40;;;15.50;60.30;;;;;;4996125;28;20031;-74
2023/02/20 02:15:39;;;;;;;5.38;2.10;;;15.60;60.30;;;;;;4996174;28;20080;-74
2023/02/20 02:18:28;;;;;;;7.18;2.50;;;15.60;60.40;;;;;;4996091;28;20037;-76
2023/02/20 02:21:23;;;;;;;3.83;2.35;;;15.50;60.20;;;;;;4996109;28;20416;-75
2023/02/20 02:24:25;;;;;;;2.40;2.05;;;15.50;60.20;;;;;;4995974;28;20077;-75
2023/02/20 02:27:04;;;;;;;4.22;2.63;;;15.50;60.20;;;;;;4996053;28;20072;-74
2023/02/20 02:30:17;;;;;;;4.45;2.80;;;15.50;60.20;;;;;;4996017;28;20041;-74
2023/02/20 02:33:17;;;;;;;3.83;2.70;;;15.50;60.20;;;;;;4995785;28;20026;-74
2023/02/20 02:35:57;;;;;;;4.90;2.40;;;15.50;60.20;;;;;;4995790;28;20029;-74
2023/02/20 02:38:29;;;;;;;5.07;2.45;;;15.50;60.20;;;;;;4995731;28;20214;-74
2023/02/20 02:41:15;;;;;;;4.82;2.53;;;15.50;60.40;;;;;;4995593;28;20040;-74
2023/02/20 02:43:49;;;;;;;6.40;2.45;;;15.50;60.20;;;;;;4995556;28;20045;-74
2023/02/20 02:46:33;;;;;;;4.47;2.33;;;15.50;60.20;;;;;;4995690;28;20058;-75
2023/02/20 02:49:16;;;;;;;3.60;2.60;;;15.50;60.20;;;;;;4995568;28;20109;-75
2023/02/20 02:51:46;;;;;;;5.00;2.70;;;15.50;60.20;;;;;;4995368;28;20490;-75
2023/02/20 02:54:15;;;;;;;6.38;2.90;;;15.50;60.30;;;;;;4995474;28;20027;-75
2023/02/20 02:56:44;;;;;;;6.95;3.05;;;15.50;60.30;;;;;;4995413;28;20019;-75
2023/02/20 02:59:18;;;;;;;6.18;2.92;;;15.50;60.30;;;;;;4995404;28;20032;-75
2023/02/20 03:01:52;;;;;;;5.78;3.03;;;15.40;60.30;;;;;;4995337;28;20069;-75
2023/02/20 03:04:22;;;;;;;5.00;2.58;;;15.40;60.20;;;;;;4993733;28;20153;-74
2023/02/20 03:06:52;;;;;;;5.82;2.78;;;15.40;60.30;;;;;;4995340;28;20023;-75
2023/02/20 03:09:40;;;;;;;8.27;3.95;;;15.40;60.30;;;;;;4995291;28;20031;-75
2023/02/20 03:12:08;;;;;;;7.00;3.25;;;15.40;60.20;;;;;;4994483;28;20042;-75
2023/02/20 03:17:39;;;;;;;7.13;2.63;;;15.40;60.20;;;;;;4995491;28;20042;-75
2023/02/20 03:20:09;;;;;;;6.38;3.25;;;15.40;60.40;;;;;;4995015;28;20134;-74
2023/02/20 03:22:43;;;;;;;12.35;3.42;;;15.40;60.40;;;;;;4995027;28;20417;-76
2023/02/20 03:25:12;;;;;;;5.95;3.10;;;15.40;60.30;;;;;;4994883;28;20040;-75
2023/02/20 03:27:46;;;;;;;6.57;2.83;;;15.40;60.50;;;;;;4995169;28;20026;-74
2023/02/20 03:30:22;;;;;;;5.88;2.65;;;15.40;60.40;;;;;;4994762;28;20041;-74
2023/02/20 03:43:59;;;;;;;6.20;2.80;;;15.40;61.20;;;;;;4994680;28;20049;-74
2023/02/20 03:46:26;;;;;;;7.20;3.38;;;15.40;60.50;;;;;;4994579;28;20397;-74
2023/02/20 03:49:03;;;;;;;5.13;3.10;;;15.40;60.50;;;;;;4994354;28;20033;-74
2023/02/20 03:51:29;;;;;;;5.20;3.00;;;15.40;60.40;;;;;;4994561;28;20069;-75
2023/02/20 03:53:55;;;;;;;7.50;3.42;;;15.40;60.40;;;;;;4994388;28;20019;-74
2023/02/20 03:57:00;;;;;;;8.20;3.60;;;15.40;60.40;;;;;;4994442;28;20019;-74
2023/02/20 03:59:30;;;;;;;8.07;3.85;;;15.40;61.00;;;;;;4915099;29;20067;-75
2023/02/20 04:02:00;;;;;;;6.40;3.70;;;15.40;60.30;;;;;;4982198;28;20130;-74
2023/02/20 04:04:35;;;;;;;10.25;4.53;;;15.40;60.40;;;;;;4993920;28;20073;-75
2023/02/20 04:07:06;;;;;;;8.77;3.53;;;15.30;60.30;;;;;;4994413;28;20022;-76
2023/02/20 04:09:34;;;;;;;7.60;3.95;;;15.40;60.50;;;;;;4994008;28;20113;-75
2023/02/20 04:12:08;;;;;;;7.10;3.80;;;15.40;60.50;;;;;;4992641;28;20481;-75
2023/02/20 04:14:34;;;;;;;9.27;3.65;;;15.30;60.40;;;;;;4993998;28;20030;-75
2023/02/20 04:17:08;;;;;;;6.93;3.40;;;15.30;60.50;;;;;;4993627;28;20094;-74
2023/02/20 04:19:34;;;;;;;9.32;3.90;;;15.30;60.50;;;;;;4994054;28;20031;-74
2023/02/20 04:22:03;;;;;;;6.43;3.22;;;15.30;60.40;;;;;;4993791;28;20030;-74
2023/02/20 04:24:37;;;;;;;7.38;3.40;;;15.30;60.40;;;;;;4993595;28;20084;-75
2023/02/20 04:27:03;;;;;;;8.50;3.72;;;15.30;61.20;;;;;;4993657;28;20030;-75
2023/02/20 04:29:28;;;;;;;8.32;3.65;;;15.30;60.40;;;;;;4993547;28;20037;-74
2023/02/20 04:31:54;;;;;;;4.90;3.13;;;15.30;60.40;;;;;;4993652;28;20022;-75
2023/02/20 04:34:20;;;;;;;7.15;3.03;;;15.30;60.50;;;;;;4993507;28;20030;-75
2023/02/20 04:36:45;;;;;;;6.15;3.35;;;15.30;60.40;;;;;;4993632;28;20113;-75
2023/02/20 04:39:11;;;;;;;8.40;3.72;;;15.30;60.50;;;;;;4993557;28;20022;-75
2023/02/20 04:41:37;;;;;;;4.65;2.97;;;15.30;60.60;;;;;;4993492;28;20031;-75
2023/02/20 04:46:47;;;;;;;6.90;3.40;;;15.30;60.70;;;;;;4978968;28;20069;-75
2023/02/20 04:49:12;;;;;;;8.48;3.45;;;15.30;60.60;;;;;;4993202;28;20058;-75
2023/02/20 04:51:38;;;;;;;6.88;3.08;;;15.30;60.80;;;;;;4993441;28;20420;-75
2023/02/20 04:54:03;;;;;;;9.30;3.60;;;15.30;60.80;;;;;;4993246;28;20030;-75
2023/02/20 04:56:29;;;;;;;9.45;3.45;;;15.30;60.70;;;;;;4993293;28;20031;-75
2023/02/20 04:58:54;;;;;;;6.72;3.38;;;15.30;60.70;;;;;;4993121;28;20053;-75
2023/02/20 05:01:20;;;;;;;8.43;3.20;;;15.30;69.30;;;;;;5302691;23;20014;-83
2023/02/20 05:07:08;;;;;;;8.65;3.63;;;15.30;60.50;;;;;;4993633;28;20100;-84
2023/02/20 05:09:33;;;;;;;8.45;2.90;;;15.30;60.60;;;;;;4993543;28;20155;-84
2023/02/20 05:11:59;;;;;;;4.80;2.47;;;15.30;60.70;;;;;;4975994;28;20176;-84
2023/02/20 05:14:25;;;;;;;9.52;2.78;;;15.30;60.60;;;;;;4993358;28;20026;-84
2023/02/20 05:16:50;;;;;;;7.15;2.58;;;15.30;60.70;;;;;;4976082;28;20027;-84
2023/02/20 05:19:17;;;;;;;7.13;2.58;;;15.30;60.70;;;;;;4993343;28;20034;-84
2023/02/20 05:24:31;;;;;;;9.15;2.30;;;15.30;60.50;;;;;;4993490;28;20041;-84
2023/02/20 05:26:57;;;;;;;6.53;2.58;;;15.30;60.60;;;;;;4992628;28;20027;-84
2023/02/20 05:29:24;;;;;;;7.18;2.42;;;15.30;60.60;;;;;;4993388;28;20022;-84
2023/02/20 05:31:50;;;;;;;9.00;2.40;;;15.30;60.70;;;;;;4993034;28;20026;-84
2023/02/20 05:34:16;;;;;;;9.50;1.98;;;15.30;60.70;;;;;;4993288;28;20081;-84
2023/02/20 05:36:42;;;;;;;7.20;2.13;;;15.40;60.70;;;;;;4993191;28;20110;-84
2023/02/20 05:39:08;;;;;;;7.88;1.90;;;15.40;60.60;;;;;;4993136;28;20026;-85
2023/02/20 05:41:34;;;;;;;5.85;2.10;;;15.30;60.60;;;;;;4993293;28;20021;-84
2023/02/20 05:44:00;;;;;;;8.38;2.10;;;15.30;60.60;;;;;;4993387;28;20046;-83
2023/02/20 05:46:26;;;;;;;8.10;2.38;;;15.40;60.60;;;;;;4993256;28;20026;-84
2023/02/20 05:48:53;;;;;;;7.57;2.35;;;15.40;60.50;;;;;;4992974;28;20034;-83
2023/02/20 05:51:29;;;;;;;7.43;2.65;;;15.40;60.40;;;;;;4992841;28;20472;-84
2023/02/20 05:53:55;;;;;;;7.40;2.20;;;15.40;60.30;;;;;;4992730;28;20031;-84
2023/02/20 05:56:21;;;;;;;4.72;1.85;;;15.40;60.40;;;;;;4993124;28;20050;-74
2023/02/20 05:58:48;;;;;;;5.57;1.88;;;15.40;60.40;;;;;;4992576;28;20110;-74
2023/02/20 06:01:21;;;;;;;5.25;2.03;;;15.50;69.40;;;;;;4992216;28;20022;-74
2023/02/20 06:03:47;;;;;;;8.07;2.13;;;15.40;60.40;;;;;;4992627;28;20205;-76
2023/02/20 06:06:14;;;;;;;11.88;2.72;;;15.40;60.40;;;;;;4992603;28;20030;-73
2023/02/20 06:08:40;;;;;;;7.25;2.10;;;15.30;60.40;;;;;;4992742;28;20093;-74
2023/02/20 06:11:08;;;;;;;5.97;1.98;;;15.30;60.40;;;;;;4992477;28;20495;-76
2023/02/20 06:13:34;;;;;;;8.02;2.80;;;15.40;60.40;;;;;;4992581;28;20031;-76
2023/02/20 06:16:00;;;;;;;9.90;2.45;;;15.30;60.30;;;;;;4992688;28;20089;-75
2023/02/20 06:18:26;;;;;;;7.65;2.17;;;15.30;60.40;;;;;;4992465;28;20026;-75
2023/02/20 06:20:52;;;;;;;6.53;1.90;;;15.30;60.90;;;;;;4992611;28;20199;-75
2023/02/20 06:23:17;;;;;;;8.57;2.42;;;15.30;60.70;;;;;;4993473;28;20507;-74
2023/02/20 06:25:43;;;;;;;6.30;2.30;;;15.40;60.70;;;;;;4998200;28;20521;-75
2023/02/20 06:28:10;;;;;;;9.50;3.20;;;15.40;60.60;;;;;;4992423;28;20034;-77
2023/02/20 06:30:36;;;;;;;6.13;1.90;;;15.40;60.60;;;;;;4992556;28;20050;-75
2023/02/20 06:33:02;;;;;;;8.18;1.63;;;15.40;60.70;;;;;;4992373;28;20272;-76
2023/02/20 06:35:27;;;;;;;8.68;2.00;;;15.40;60.60;;;;;;4992616;28;20047;-73
2023/02/20 06:37:53;;;;;;;9.55;2.40;;;15.40;60.60;;;;;;4974933;28;20027;-75
2023/02/20 06:40:19;;;;;;;7.10;2.00;;;15.40;60.50;;;;;;4995998;28;20026;-76
2023/02/20 06:42:44;;;;;;;8.88;2.10;;;15.40;60.40;;;;;;4995687;28;20480;-76
2023/02/20 06:45:10;;;;;;;7.60;2.42;;;15.40;60.50;;;;;;4995692;28;20525;-84
2023/02/20 06:47:36;;;;;;;7.22;1.92;;;15.40;60.40;;;;;;4995629;28;20033;-76
2023/02/20 06:50:02;;;;;;;5.70;2.00;;;15.40;60.40;;;;;;4995555;28;20058;-75
2023/02/20 06:52:28;;;;;;;7.25;2.15;;;15.30;60.50;;;;;;4995975;28;20033;-75
2023/02/20 06:54:54;;;;;;;9.32;2.03;;;15.30;60.60;;;;;;4995665;28;20030;-77
2023/02/20 06:57:20;;;;;;;7.88;2.58;;;15.40;60.60;;;;;;4995557;28;20503;-76
2023/02/20 06:59:48;;;;;;;7.50;2.58;;;15.40;60.60;;;;;;4995479;28;20026;-77
2023/02/20 07:02:15;;;;;;;6.05;1.95;;;15.40;60.70;;;;;;4995159;28;20050;-77
2023/02/20 07:04:41;;;;;;;8.15;1.85;;;15.40;60.70;;;;;;4995558;28;20388;-77
2023/02/20 07:07:10;;;;;;;7.90;2.13;;;15.40;60.60;;;;;;4995649;28;20029;-76
2023/02/20 07:09:37;;;;;;;;;;;15.40;60.60;;;;;;4996221;28;20058;-80
2023/02/20 07:12:04;;;;;;;8.32;2.72;;;15.30;60.40;;;;;;4995543;28;19905;-80
2023/02/20 07:14:31;;;;;;;8.15;2.22;;;15.40;61.30;;;;;;4995226;28;20034;-80
2023/02/20 07:16:57;;;;;;;12.55;2.83;;;15.40;60.70;;;;;;4995177;28;20162;-80
2023/02/20 07:19:23;;;;;;;6.32;2.08;;;15.40;60.60;;;;;;4995224;28;20340;-80
2023/02/20 07:21:49;;;;;;;7.53;2.40;;;15.30;60.50;;;;;;4995148;28;20018;-80
2023/02/20 07:24:17;;;;;;;7.30;2.10;;;15.40;60.60;;;;;;4995085;28;20034;-80
2023/02/20 07:26:43;;;;;;;9.23;2.40;;;15.40;60.60;;;;;;4995071;28;20096;-80
2023/02/20 07:29:12;;;;;;;9.73;2.15;;;15.40;60.60;;;;;;4995109;28;20396;-80
2023/02/20 07:31:38;;;;;;;8.95;2.53;;;15.40;60.50;;;;;;4995148;28;20065;-80
2023/02/20 07:34:04;;;;;;;6.03;1.88;;;15.40;60.70;;;;;;4994947;28;20022;-81
2023/02/20 07:36:30;;;;;;;10.10;2.63;;;15.40;60.60;;;;;;4994906;28;20065;-80
2023/02/20 07:38:58;;;;;;;9.05;2.15;;;15.40;60.60;;;;;;4994953;28;20473;-81
2023/02/20 07:41:28;;;;;;;7.40;2.38;;;15.40;60.60;;;;;;4994925;28;20029;-81
2023/02/20 07:43:57;;;;;;;6.60;2.28;;;15.30;60.50;;;;;;4994713;28;20042;-81
2023/02/20 07:46:24;;;;;;;7.77;2.53;;;15.40;60.70;;;;;;4994099;28;20048;-80
2023/02/20 07:48:52;;;;;;;5.88;2.35;;;15.40;60.50;;;;;;4994480;28;20305;-81
2023/02/20 07:51:18;;;;;;;7.68;2.10;;;15.40;60.50;;;;;;4993813;28;20540;-80
2023/02/20 07:53:52;;;;;;;8.05;2.20;;;15.40;60.50;;;;;;4994353;28;20084;-79
2023/02/20 07:56:20;;;;;;;5.85;2.08;;;15.40;60.50;;;;;;4994756;28;20030;-78
2023/02/20 07:58:46;;;;;;;5.90;1.88;;;15.40;60.50;;;;;;4994606;28;20464;-78
2023/02/20 08:01:13;;;;;;;7.35;2.22;;;15.40;69.40;;;;;;4994753;28;20038;-78
2023/02/20 08:03:39;;;;;;;8.48;2.70;;;15.30;60.50;;;;;;5014018;28;20040;-80
2023/02/20 08:06:06;;;;;;;6.40;2.42;;;15.30;60.50;;;;;;5014028;28;20029;-81
2023/02/20 08:08:32;;;;;;;9.70;2.40;;;15.40;60.50;;;;;;5014003;28;20018;-78
2023/02/20 08:10:58;;;;;;;8.35;2.28;;;15.40;60.50;;;;;;5014039;28;20022;-80
2023/02/20 08:13:24;;;;;;;5.50;1.80;;;15.40;60.50;;;;;;5013875;28;20050;-78
2023/02/20 08:15:50;;;;;;;10.13;2.20;;;15.40;60.50;;;;;;5013861;28;20050;-81
2023/02/20 08:18:16;;;;;;;7.82;2.47;;;15.30;60.50;;;;;;5013797;28;20025;-81
2023/02/20 08:20:42;;;;;;;10.65;2.28;;;15.40;60.50;;;;;;5013775;28;20034;-80
2023/02/20 08:23:20;;;;;;;9.13;2.05;;;15.30;60.50;;;;;;5013403;28;20048;-77
2023/02/20 08:25:46;;;;;;;9.30;2.22;;;15.40;60.50;;;;;;5013026;28;20484;-77
2023/02/20 08:28:13;;;;;;;7.03;1.83;;;15.30;60.60;;;;;;5013607;28;20372;-77
2023/02/20 08:30:39;;;;;;;7.00;1.98;;;15.30;60.60;;;;;;5013440;28;20096;-76
2023/02/20 08:33:06;;;;;;;9.25;2.67;;;15.30;60.80;;;;;;5013511;28;20018;-76
2023/02/20 08:35:35;;;;;;;7.53;1.77;;;15.40;61.10;;;;;;5013172;28;20101;-76
2023/02/20 08:38:02;;;;;;;8.83;2.27;;;15.40;61.10;;;;;;5013456;28;20418;-77
2023/02/20 08:40:28;;;;;;;7.43;1.88;;;15.30;61.10;;;;;;5013577;28;20276;-76
2023/02/20 08:42:54;;;;;;;12.18;2.63;;;15.40;61.20;;;;;;5013160;28;20029;-76
2023/02/20 08:45:20;;;;;;;11.48;3.38;;;15.30;61.10;;;;;;5012969;28;20034;-77
2023/02/20 08:47:47;;;;;;;10.45;2.15;;;15.40;61.20;;;;;;5012998;28;20025;-76
2023/02/20 08:50:13;;;;;;;4.65;1.98;;;15.30;61.10;;;;;;5012831;28;20500;-77
2023/02/20 08:52:41;;;;;;;11.32;2.40;;;15.40;61.20;;;;;;5013062;28;20030;-77
2023/02/20 08:55:07;;;;;;;8.73;2.65;;;15.40;61.20;;;;;;5012959;28;20022;-77
2023/02/20 08:57:33;;;;;;;7.95;2.50;;;15.40;61.00;;;;;;5013149;28;20378;-77
2023/02/20 08:59:59;;;;;;;7.97;2.50;;;15.40;61.00;;;;;;5013293;28;20033;-77
2023/02/20 09:02:28;;;;;;;8.35;2.42;;;15.40;61.00;;;;;;5012548;28;20092;-77
2023/02/20 09:04:55;;;;;;;7.13;2.30;;;15.40;61.10;;;;;;5012624;28;20030;-77
2023/02/20 09:07:21;;;;;;;6.70;2.33;;;15.40;61.20;;;;;;5012880;28;20089;-76
2023/02/20 09:09:49;;;;;;;6.63;2.22;;;15.40;61.10;;;;;;5013024;28;20052;-78
2023/02/20 09:12:16;;;;;;;7.75;2.10;;;15.40;61.10;;;;;;5012879;28;20026;-76
2023/02/20 09:14:42;;;;;;;5.72;2.05;;;15.40;61.70;;;;;;5012942;28;20072;-76
2023/02/20 09:17:08;;;;;;;7.38;2.03;;;15.40;61.00;;;;;;5016004;28;20041;-77
2023/02/20 09:19:34;;;;;;;9.68;2.80;;;15.40;61.00;;;;;;5016265;28;20398;-75
2023/02/20 09:22:01;;;;;;;9.95;2.78;;;15.50;61.00;;;;;;5012816;28;20029;-77
2023/02/20 09:24:30;;;;;;;7.85;2.80;;;15.40;60.90;;;;;;5012606;28;20064;-81
2023/02/20 09:26:57;;;;;;;8.85;2.28;;;15.40;60.90;;;;;;5012480;28;20022;-79
2023/02/20 09:29:23;;;;;;;9.30;2.60;;;15.40;60.90;;;;;;5012336;28;20141;-78
2023/02/20 09:31:49;;;;;;;7.15;2.40;;;15.40;61.00;;;;;;5012413;28;20033;-77
2023/02/20 09:34:15;;;;;;;9.63;2.80;;;15.40;60.90;;;;;;5012694;28;20104;-79
2023/02/20 09:36:41;;;;;;;7.80;2.80;;;15.40;60.90;;;;;;5012427;28;20445;-85
2023/02/20 09:39:07;;;;;;;6.68;2.60;;;15.40;60.90;;;;;;5012427;28;20100;-77
2023/02/20 09:41:56;;;;;;;6.57;2.35;;;15.40;60.90;;;;;;5012242;28;20026;-79
2023/02/20 09:44:40;;;;;;;9.98;3.20;;;15.40;60.90;;;;;;5012286;28;20034;-80
2023/02/20 09:47:26;;;;;;;7.88;2.83;;;15.40;60.90;;;;;;5012269;28;20049;-77
2023/02/20 09:49:55;;;;;;;5.88;2.20;;;15.40;60.90;;;;;;4985007;28;20041;-80
2023/02/20 09:52:22;;;;;;;4.35;2.20;;;15.40;60.80;;;;;;5012394;28;20026;-80
2023/02/20 09:54:54;;;;;;;5.05;2.58;;;15.40;60.80;;;;;;5012518;28;20033;-81
2023/02/20 09:57:25;;;;;;;7.35;2.70;;;15.40;60.80;;;;;;5012094;28;20496;-81
2023/02/20 09:59:57;;;;;;;8.98;3.03;;;15.50;60.90;;;;;;5012572;28;20022;-77
2023/02/20 10:02:29;;;;;;;6.07;2.47;;;15.40;60.80;;;;;;5012239;28;20050;-80
2023/02/20 10:05:03;;;;;;;6.32;2.33;;;15.40;60.80;;;;;;5012370;28;20400;-80
2023/02/20 10:07:33;;;;;;;8.15;2.78;;;15.40;60.80;;;;;;5012099;28;20026;-80
2023/02/20 10:10:15;;;;;;;6.82;2.50;;;15.40;60.80;;;;;;5012405;28;20054;-80
2023/02/20 10:12:50;;;;;;;7.90;2.20;;;15.40;60.70;;;;;;5012405;28;20022;-80
2023/02/20 10:15:27;;;;;;;4.43;2.20;;;15.40;60.80;;;;;;5016149;28;20435;-81
2023/02/20 10:18:08;;;;;;;6.60;2.50;;;15.40;60.80;;;;;;5015855;28;20026;-81
2023/02/20 10:21:08;;;;;;;5.47;2.20;;;15.40;60.70;;;;;;5015730;28;20022;-80
2023/02/20 10:23:48;;;;;;;4.60;2.03;;;15.40;60.60;;;;;;5016101;28;20105;-80
2023/02/20 10:26:26;;;;;;;4.65;1.90;;;15.40;60.70;;;;;;5016099;28;20033;-80
2023/02/20 10:28:52;;;;;;;6.10;2.00;;;15.40;60.60;;;;;;4999186;28;20500;-79
2023/02/20 10:31:56;;;;;;;7.05;2.30;;;15.40;60.60;;;;;;5016082;28;20412;-80
2023/02/20 10:34:29;;;;;;;4.45;1.80;;;15.40;60.60;;;;;;4961610;28;20274;-79
2023/02/20 10:37:07;;;;;;;3.83;1.90;;;15.40;60.70;;;;;;5015861;28;20026;-79
2023/02/20 10:39:35;;;;;;;4.25;1.92;;;15.40;60.70;;;;;;5015701;28;20075;-78
2023/02/20 10:42:18;;;;;;;4.05;1.42;;;15.40;60.70;;;;;;5015690;28;20033;-78
2023/02/20 10:45:02;;;;;;;4.53;1.73;;;15.40;60.60;;;;;;5015514;28;20029;-77
2023/02/20 10:47:35;;;;;;;4.47;1.63;;;15.40;60.60;;;;;;5015130;28;20022;-76
2023/02/20 10:50:25;;;;;;;3.47;1.52;;;15.40;60.60;;;;;;5015265;28;20026;-78
2023/02/20 10:52:59;;;;;;;3.13;1.65;;;15.40;60.60;;;;;;5015468;28;20412;-78
2023/02/20 10:55:47;;;;;;;3.45;1.55;;;15.40;60.70;;;;;;5015485;28;20423;-78
2023/02/20 10:58:40;;;;;;;3.22;1.75;;;15.40;60.60;;;;;;5015336;28;20038;-75
2023/02/20 11:01:10;;;;;;;2.70;1.27;;;15.40;69.70;;;;;;5015305;28;20022;-75
2023/02/20 11:03:50;;;;;;;1.98;1.05;;;15.40;60.60;;;;;;5014731;28;20073;-76
2023/02/20 11:06:20;;;;;;;4.77;1.43;;;15.40;60.60;;;;;;5014966;28;20495;-78
2023/02/20 11:08:46;;;;;;;4.13;1.40;;;15.40;60.70;;;;;;5015148;28;20093;-77
2023/02/20 11:11:21;;;;;;;1.73;1.02;;;15.40;60.60;;;;;;5014733;28;20060;-79
2023/02/20 11:13:47;;;;;;;3.45;1.25;;;15.40;60.70;;;;;;5014990;28;20050;-76
2023/02/20 11:16:22;;;;;;;4.40;1.08;;;15.40;60.80;;;;;;5014626;28;20467;-75
2023/02/20 11:18:55;;;;;;;4.25;1.38;;;15.40;60.70;;;;;;5014629;28;20094;-77
2023/02/20 11:21:40;;;;;;;3.78;1.20;;;15.30;60.60;;;;;;5014581;28;20041;-76
2023/02/20 11:24:23;;;;;;;2.63;1.17;;;15.40;60.70;;;;;;5014315;28;20120;-76
2023/02/20 11:26:53;;;;;;;2.53;1.08;;;15.40;60.80;;;;;;5014004;28;20445;-77
2023/02/20 11:29:22;;;;;;;5.30;1.92;;;15.30;60.60;;;;;;5014480;28;20057;-76
2023/02/20 11:31:48;;;;;;;3.75;1.20;;;15.30;60.60;;;;;;5014365;28;20618;-77
2023/02/20 11:34:29;;;;;;;3.42;0.90;;;15.30;60.60;;;;;;5014591;28;20101;-78
2023/02/20 11:37:03;;;;;;;6.57;1.23;;;15.40;60.70;;;;;;5014318;28;20026;-76
2023/02/20 11:39:30;;;;;;;2.72;1.02;;;15.30;60.70;;;;;;5014362;28;20037;-77
2023/02/20 11:42:12;;;;;;;3.13;1.40;;;15.40;60.80;;;;;;5014430;28;20026;-79
2023/02/20 11:44:38;;;;;;;3.00;1.05;;;15.40;60.70;;;;;;5014165;28;20092;-78
2023/02/20 11:47:24;;;;;;;4.15;0.95;;;15.30;60.70;;;;;;5014212;28;20026;-78
2023/02/20 11:50:12;;;;;;;2.70;1.23;;;15.30;60.80;;;;;;5014010;28;20041;-78
2023/02/20 11:52:53;;;;;;;7.50;1.73;;;15.30;60.80;;;;;;5014038;28;20468;-78
2023/02/20 11:55:23;;;;;;;2.60;1.00;;;15.40;60.80;;;;;;5013883;28;20563;-77
2023/02/20 11:57:50;;;;;;;3.45;1.05;;;15.30;60.70;;;;;;5013912;28;20029;-81
2023/02/20 12:00:20;;;;;;;2.85;1.58;;;15.30;60.80;;;;;;5013735;28;20058;-81
2023/02/20 12:02:49;;;;;;;3.33;1.05;;;15.30;60.80;;;;;;5013672;28;20500;-81
2023/02/20 12:05:15;;;;;;;3.63;1.20;;;15.30;60.80;;;;;;5013635;28;20116;-79
2023/02/20 12:07:55;;;;;;;3.35;1.35;;;15.30;60.80;;;;;;5014037;28;20030;-82
2023/02/20 12:10:34;;;;;;;2.25;0.90;;;15.30;60.80;;;;;;5014229;28;20045;-80
2023/02/20 12:13:01;;;;;;;3.05;1.05;;;15.30;60.90;;;;;;5013660;28;20022;-83
2023/02/20 12:15:28;;;;;;;3.72;1.20;;;15.30;60.80;;;;;;5013471;28;20053;-81
2023/02/20 12:18:21;;;;;;;6.03;1.48;;;15.30;60.90;;;;;;5013917;28;20434;-80
2023/02/20 12:21:12;;;;;;;4.47;1.40;;;15.30;60.90;;;;;;4998624;28;20105;-79
2023/02/20 12:23:55;;;;;;;3.35;1.17;;;15.30;60.90;;;;;;5013176;28;20076;-79
2023/02/20 12:26:43;;;;;;;3.15;0.93;;;15.30;60.90;;;;;;5013314;28;20021;-79
2023/02/20 12:29:26;;;;;;;3.70;1.40;;;15.30;60.90;;;;;;5013553;28;20022;-79
2023/02/20 12:32:16;;;;;;;2.88;0.90;;;15.30;61.00;;;;;;5013352;28;20105;-78
2023/02/20 12:35:12;;;;;;;3.63;1.15;;;15.30;61.00;;;;;;5013526;28;20026;-75
2023/02/20 12:37:47;;;;;;;2.45;1.00;;;15.30;60.90;;;;;;5012888;28;20026;-78
2023/02/20 12:40:32;;;;;;;5.15;1.17;;;15.30;60.90;;;;;;5013420;28;20093;-78
2023/02/20 12:43:21;;;;;;;2.40;0.63;;;15.30;61.00;;;;;;5013206;28;20612;-77
2023/02/20 12:45:53;;;;;;;4.03;1.47;;;15.30;60.90;;;;;;5013290;28;20064;-78
2023/02/20 12:48:40;;;;;;;2.85;1.10;;;15.30;61.00;;;;;;5013183;28;20030;-78
2023/02/20 12:51:06;;;;;;;4.63;1.15;;;15.30;61.00;;;;;;5013119;28;20030;-78
2023/02/20 12:53:49;;;;;;;3.67;1.20;;;15.30;61.10;;;;;;5012920;28;20025;-78
2023/02/20 12:56:24;;;;;;;4.60;1.35;;;15.30;61.00;;;;;;5012767;28;20076;-77
2023/02/20 12:59:07;;;;;;;1.65;0.70;;;15.30;61.00;;;;;;5012834;28;20030;-78
2023/02/20 13:01:34;;;;;;;5.03;1.10;;;15.30;61.00;;;;;;5012747;28;20046;-78
2023/02/20 13:04:18;;;;;;;4.40;0.70;;;15.30;61.00;;;;;;5012739;28;20029;-77
2023/02/20 13:07:00;;;;;;;3.47;1.40;;;15.30;61.10;;;;;;5012985;28;20574;-77
2023/02/20 13:09:30;;;;;;;3.45;1.23;;;15.30;61.10;;;;;;5012861;28;20026;-78
2023/02/20 13:12:03;;;;;;;3.15;1.13;;;15.30;61.00;;;;;;5012838;28;20025;-78
2023/02/20 13:14:54;;;;;;;3.55;1.20;;;15.30;61.10;;;;;;5012587;28;20096;-78
2023/02/20 13:17:39;;;;;;;3.53;0.95;;;15.30;61.00;;;;;;5012476;28;20106;-76
2023/02/20 13:20:08;;;;;;;2.42;1.15;;;15.20;61.00;;;;;;5012368;28;20507;-78
2023/02/20 13:22:34;;;;;;;4.50;1.33;;;15.30;61.10;;;;;;5012767;28;20499;-77
2023/02/20 13:25:28;;;;;;;4.20;0.90;;;15.30;61.00;;;;;;5012365;28;20038;-75
2023/02/20 13:28:05;;;;;;;3.75;1.30;;;15.30;61.00;;;;;;5012443;28;20030;-77